Almagro, Spain
Current Conditions -  °F | °C
As of 8:00 AM on Friday 28 Nov 2014 (Local Time) from LEAO Reporting Station
Few Clouds Few Clouds  
Wind Chill: 50°   Ceiling: Unl
Heat Index: 50°   Visibility: 6mi
Dew Point: 41°   Wind: 9mph
Humidity: 71%   Direction: 140°SE
Pressure: 29.06"   Gusts: NA
Location:  38.89°N, 3.71°W
Report Text: LEAO 280700Z 14008KT 100V160 9999 FEW045 10/05 Q0984
Loading
Personal Weather Stations






























Interactive Weather Map New forecast layout! Learn more

10-Day Weather Forecast

Advertisements
Track Severe Weather on mobile